sensor_id;sensor_type;location;lat;lon;timestamp;P1;durP1;ratioP1;P2;durP2;ratioP2
9924;SDS011;5001;51.674;7.868;2023-12-20T00:02:19;13.50;;;10.30;;
9924;SDS011;5001;51.674;7.868;2023-12-20T00:04:46;11.23;;;9.50;;
9924;SDS011;5001;51.674;7.868;2023-12-20T00:07:13;13.80;;;9.80;;
9924;SDS011;5001;51.674;7.868;2023-12-20T00:09:40;14.70;;;9.93;;
9924;SDS011;5001;51.674;7.868;2023-12-20T00:12:07;14.17;;;11.97;;
9924;SDS011;5001;51.674;7.868;2023-12-20T00:14:35;21.47;;;16.07;;
9924;SDS011;5001;51.674;7.868;2023-12-20T00:17:02;18.60;;;13.90;;
9924;SDS011;5001;51.674;7.868;2023-12-20T00:19:29;23.53;;;15.20;;
9924;SDS011;5001;51.674;7.868;2023-12-20T00:21:56;24.93;;;14.97;;
9924;SDS011;5001;51.674;7.868;2023-12-20T00:24:25;17.77;;;11.90;;
9924;SDS011;5001;51.674;7.868;2023-12-20T00:26:52;19.57;;;12.23;;
9924;SDS011;5001;51.674;7.868;2023-12-20T00:29:19;21.23;;;11.27;;
9924;SDS011;5001;51.674;7.868;2023-12-20T00:31:46;19.40;;;12.33;;
9924;SDS011;5001;51.674;7.868;2023-12-20T00:34:13;17.07;;;11.50;;
9924;SDS011;5001;51.674;7.868;2023-12-20T00:36:41;14.03;;;11.00;;
9924;SDS011;5001;51.674;7.868;2023-12-20T00:39:07;18.40;;;11.57;;
9924;SDS011;5001;51.674;7.868;2023-12-20T00:41:34;17.50;;;11.47;;
9924;SDS011;5001;51.674;7.868;2023-12-20T00:44:01;18.33;;;12.73;;
9924;SDS011;5001;51.674;7.868;2023-12-20T00:46:29;20.73;;;12.33;;
9924;SDS011;5001;51.674;7.868;2023-12-20T00:48:56;19.13;;;12.87;;
9924;SDS011;5001;51.674;7.868;2023-12-20T00:51:23;16.97;;;13.00;;
9924;SDS011;5001;51.674;7.868;2023-12-20T00:53:50;20.40;;;12.80;;
9924;SDS011;5001;51.674;7.868;2023-12-20T00:56:21;16.03;;;11.43;;
9924;SDS011;5001;51.674;7.868;2023-12-20T00:58:48;19.93;;;10.73;;
9924;SDS011;5001;51.674;7.868;2023-12-20T01:01:15;15.07;;;11.53;;
9924;SDS011;5001;51.674;7.868;2023-12-20T01:03:42;23.27;;;12.37;;
9924;SDS011;5001;51.674;7.868;2023-12-20T01:06:09;15.27;;;11.33;;
9924;SDS011;5001;51.674;7.868;2023-12-20T01:08:37;16.00;;;11.30;;
9924;SDS011;5001;51.674;7.868;2023-12-20T01:11:04;16.43;;;11.20;;
9924;SDS011;5001;51.674;7.868;2023-12-20T01:13:32;19.97;;;12.03;;
9924;SDS011;5001;51.674;7.868;2023-12-20T01:15:59;17.77;;;11.13;;
9924;SDS011;5001;51.674;7.868;2023-12-20T01:18:26;20.30;;;11.90;;
9924;SDS011;5001;51.674;7.868;2023-12-20T01:20:53;18.40;;;10.03;;
9924;SDS011;5001;51.674;7.868;2023-12-20T01:23:20;22.00;;;11.10;;
9924;SDS011;5001;51.674;7.868;2023-12-20T01:25:47;16.47;;;10.73;;
9924;SDS011;5001;51.674;7.868;2023-12-20T01:28:15;14.93;;;10.77;;
9924;SDS011;5001;51.674;7.868;2023-12-20T01:30:42;14.33;;;10.00;;
9924;SDS011;5001;51.674;7.868;2023-12-20T01:33:09;12.63;;;9.83;;
9924;SDS011;5001;51.674;7.868;2023-12-20T01:35:36;14.23;;;10.47;;
9924;SDS011;5001;51.674;7.868;2023-12-20T01:38:03;16.27;;;11.47;;
9924;SDS011;5001;51.674;7.868;2023-12-20T01:40:30;16.10;;;10.70;;
9924;SDS011;5001;51.674;7.868;2023-12-20T01:43:01;15.40;;;9.93;;
9924;SDS011;5001;51.674;7.868;2023-12-20T01:45:32;15.63;;;9.87;;
9924;SDS011;5001;51.674;7.868;2023-12-20T01:47:59;15.30;;;9.97;;
9924;SDS011;5001;51.674;7.868;2023-12-20T01:50:29;13.83;;;10.70;;
9924;SDS011;5001;51.674;7.868;2023-12-20T01:52:58;12.10;;;10.03;;
9924;SDS011;5001;51.674;7.868;2023-12-20T01:55:27;16.10;;;10.27;;
9924;SDS011;5001;51.674;7.868;2023-12-20T01:57:57;18.03;;;11.20;;
9924;SDS011;5001;51.674;7.868;2023-12-20T02:00:26;25.53;;;11.53;;
9924;SDS011;5001;51.674;7.868;2023-12-20T02:02:54;17.40;;;11.77;;
9924;SDS011;5001;51.674;7.868;2023-12-20T02:05:21;22.60;;;11.50;;
9924;SDS011;5001;51.674;7.868;2023-12-20T02:07:48;11.67;;;10.17;;
9924;SDS011;5001;51.674;7.868;2023-12-20T02:10:16;18.63;;;11.63;;
9924;SDS011;5001;51.674;7.868;2023-12-20T02:12:43;15.30;;;11.80;;
9924;SDS011;5001;51.674;7.868;2023-12-20T02:15:10;17.57;;;11.17;;
9924;SDS011;5001;51.674;7.868;2023-12-20T02:17:38;17.87;;;11.60;;
9924;SDS011;5001;51.674;7.868;2023-12-20T02:20:06;25.67;;;15.50;;
9924;SDS011;5001;51.674;7.868;2023-12-20T02:22:33;17.27;;;11.27;;
9924;SDS011;5001;51.674;7.868;2023-12-20T02:25:00;15.40;;;10.80;;
9924;SDS011;5001;51.674;7.868;2023-12-20T02:27:27;18.60;;;11.17;;
9924;SDS011;5001;51.674;7.868;2023-12-20T02:29:56;12.57;;;10.50;;
9924;SDS011;5001;51.674;7.868;2023-12-20T02:32:23;18.87;;;11.00;;
9924;SDS011;5001;51.674;7.868;2023-12-20T02:34:54;14.33;;;12.70;;
9924;SDS011;5001;51.674;7.868;2023-12-20T02:37:21;10.87;;;9.67;;
9924;SDS011;5001;51.674;7.868;2023-12-20T02:39:48;13.80;;;9.43;;
9924;SDS011;5001;51.674;7.868;2023-12-20T02:42:15;9.57;;;8.50;;
9924;SDS011;5001;51.674;7.868;2023-12-20T02:44:43;9.73;;;7.90;;
9924;SDS011;5001;51.674;7.868;2023-12-20T02:47:10;18.77;;;8.30;;
9924;SDS011;5001;51.674;7.868;2023-12-20T02:49:37;12.17;;;8.10;;
9924;SDS011;5001;51.674;7.868;2023-12-20T02:52:04;12.07;;;8.60;;
9924;SDS011;5001;51.674;7.868;2023-12-20T02:54:31;9.50;;;7.83;;
9924;SDS011;5001;51.674;7.868;2023-12-20T02:56:58;16.00;;;9.13;;
9924;SDS011;5001;51.674;7.868;2023-12-20T02:59:25;10.73;;;8.70;;
9924;SDS011;5001;51.674;7.868;2023-12-20T03:05:52;13.40;;;8.97;;
9924;SDS011;5001;51.674;7.868;2023-12-20T03:08:19;16.07;;;9.70;;
9924;SDS011;5001;51.674;7.868;2023-12-20T03:10:46;22.27;;;10.83;;
9924;SDS011;5001;51.674;7.868;2023-12-20T03:13:13;11.67;;;9.67;;
9924;SDS011;5001;51.674;7.868;2023-12-20T03:15:40;17.60;;;9.87;;
9924;SDS011;5001;51.674;7.868;2023-12-20T03:18:07;14.50;;;10.20;;
9924;SDS011;5001;51.674;7.868;2023-12-20T03:20:34;15.70;;;10.13;;
9924;SDS011;5001;51.674;7.868;2023-12-20T03:23:01;21.00;;;10.53;;
9924;SDS011;5001;51.674;7.868;2023-12-20T03:25:29;12.63;;;10.30;;
9924;SDS011;5001;51.674;7.868;2023-12-20T03:27:56;11.27;;;10.00;;
9924;SDS011;5001;51.674;7.868;2023-12-20T03:30:23;15.50;;;9.90;;
9924;SDS011;5001;51.674;7.868;2023-12-20T03:32:50;19.57;;;10.20;;
9924;SDS011;5001;51.674;7.868;2023-12-20T03:35:17;16.47;;;10.87;;
9924;SDS011;5001;51.674;7.868;2023-12-20T03:37:46;15.13;;;10.33;;
9924;SDS011;5001;51.674;7.868;2023-12-20T03:40:13;15.13;;;10.67;;
9924;SDS011;5001;51.674;7.868;2023-12-20T03:42:40;19.57;;;10.87;;
9924;SDS011;5001;51.674;7.868;2023-12-20T03:45:07;15.23;;;11.13;;
9924;SDS011;5001;51.674;7.868;2023-12-20T03:47:35;14.20;;;11.10;;
9924;SDS011;5001;51.674;7.868;2023-12-20T03:50:02;12.37;;;10.50;;
9924;SDS011;5001;51.674;7.868;2023-12-20T03:52:29;11.67;;;10.50;;
9924;SDS011;5001;51.674;7.868;2023-12-20T03:54:56;12.13;;;10.93;;
9924;SDS011;5001;51.674;7.868;2023-12-20T03:57:23;15.27;;;11.17;;
9924;SDS011;5001;51.674;7.868;2023-12-20T03:59:50;13.07;;;11.57;;
9924;SDS011;5001;51.674;7.868;2023-12-20T04:02:17;24.93;;;11.67;;
9924;SDS011;5001;51.674;7.868;2023-12-20T04:04:44;15.77;;;11.27;;
9924;SDS011;5001;51.674;7.868;2023-12-20T04:07:11;17.20;;;12.30;;
9924;SDS011;5001;51.674;7.868;2023-12-20T04:09:38;20.07;;;13.43;;
9924;SDS011;5001;51.674;7.868;2023-12-20T04:12:06;17.17;;;12.83;;
9924;SDS011;5001;51.674;7.868;2023-12-20T04:14:33;16.90;;;12.17;;
9924;SDS011;5001;51.674;7.868;2023-12-20T04:17:00;22.33;;;12.77;;
9924;SDS011;5001;51.674;7.868;2023-12-20T04:19:27;15.77;;;13.07;;
9924;SDS011;5001;51.674;7.868;2023-12-20T04:21:54;17.33;;;13.00;;
9924;SDS011;5001;51.674;7.868;2023-12-20T04:24:21;27.57;;;13.83;;
9924;SDS011;5001;51.674;7.868;2023-12-20T04:26:49;17.13;;;11.17;;
9924;SDS011;5001;51.674;7.868;2023-12-20T04:29:15;17.90;;;11.93;;
9924;SDS011;5001;51.674;7.868;2023-12-20T04:31:42;28.00;;;12.13;;
9924;SDS011;5001;51.674;7.868;2023-12-20T04:34:10;17.13;;;12.33;;
9924;SDS011;5001;51.674;7.868;2023-12-20T04:36:37;16.80;;;12.83;;
9924;SDS011;5001;51.674;7.868;2023-12-20T04:39:04;19.87;;;13.40;;
9924;SDS011;5001;51.674;7.868;2023-12-20T04:41:31;24.90;;;13.77;;
9924;SDS011;5001;51.674;7.868;2023-12-20T04:43:58;29.17;;;14.63;;
9924;SDS011;5001;51.674;7.868;2023-12-20T04:46:24;29.67;;;13.97;;
9924;SDS011;5001;51.674;7.868;2023-12-20T04:48:52;20.47;;;14.13;;
9924;SDS011;5001;51.674;7.868;2023-12-20T04:51:19;20.90;;;15.63;;
9924;SDS011;5001;51.674;7.868;2023-12-20T04:53:46;15.33;;;13.80;;
9924;SDS011;5001;51.674;7.868;2023-12-20T04:56:13;19.73;;;14.63;;
9924;SDS011;5001;51.674;7.868;2023-12-20T04:58:40;21.13;;;14.77;;
9924;SDS011;5001;51.674;7.868;2023-12-20T05:01:08;16.67;;;13.87;;
9924;SDS011;5001;51.674;7.868;2023-12-20T05:03:36;20.97;;;15.33;;
9924;SDS011;5001;51.674;7.868;2023-12-20T05:06:03;17.00;;;15.00;;
9924;SDS011;5001;51.674;7.868;2023-12-20T05:08:30;17.50;;;14.07;;
9924;SDS011;5001;51.674;7.868;2023-12-20T05:10:57;24.10;;;15.40;;
9924;SDS011;5001;51.674;7.868;2023-12-20T05:13:24;25.73;;;15.37;;
9924;SDS011;5001;51.674;7.868;2023-12-20T05:16:03;22.97;;;14.30;;
9924;SDS011;5001;51.674;7.868;2023-12-20T05:18:31;23.63;;;14.73;;
9924;SDS011;5001;51.674;7.868;2023-12-20T05:20:58;22.00;;;15.80;;
9924;SDS011;5001;51.674;7.868;2023-12-20T05:23:25;19.87;;;15.50;;
9924;SDS011;5001;51.674;7.868;2023-12-20T05:25:52;21.60;;;15.63;;
9924;SDS011;5001;51.674;7.868;2023-12-20T05:28:19;22.30;;;15.87;;
9924;SDS011;5001;51.674;7.868;2023-12-20T05:30:46;22.80;;;14.93;;
9924;SDS011;5001;51.674;7.868;2023-12-20T05:33:13;18.37;;;14.53;;
9924;SDS011;5001;51.674;7.868;2023-12-20T05:35:40;23.03;;;15.77;;
9924;SDS011;5001;51.674;7.868;2023-12-20T05:38:10;28.73;;;15.13;;
9924;SDS011;5001;51.674;7.868;2023-12-20T05:40:36;21.20;;;14.53;;
9924;SDS011;5001;51.674;7.868;2023-12-20T05:43:03;17.53;;;15.63;;
9924;SDS011;5001;51.674;7.868;2023-12-20T05:45:31;20.20;;;15.30;;
9924;SDS011;5001;51.674;7.868;2023-12-20T05:47:57;21.93;;;15.20;;
9924;SDS011;5001;51.674;7.868;2023-12-20T05:50:25;28.03;;;20.03;;
9924;SDS011;5001;51.674;7.868;2023-12-20T05:52:52;16.63;;;15.03;;
9924;SDS011;5001;51.674;7.868;2023-12-20T05:55:20;31.83;;;16.50;;
9924;SDS011;5001;51.674;7.868;2023-12-20T05:57:47;20.83;;;15.37;;
9924;SDS011;5001;51.674;7.868;2023-12-20T06:00:15;15.23;;;13.70;;
9924;SDS011;5001;51.674;7.868;2023-12-20T06:02:42;17.27;;;15.47;;
9924;SDS011;5001;51.674;7.868;2023-12-20T06:05:09;25.27;;;16.10;;
9924;SDS011;5001;51.674;7.868;2023-12-20T06:07:37;22.20;;;15.47;;
9924;SDS011;5001;51.674;7.868;2023-12-20T06:10:04;17.73;;;14.60;;
9924;SDS011;5001;51.674;7.868;2023-12-20T06:12:32;15.43;;;13.50;;
9924;SDS011;5001;51.674;7.868;2023-12-20T06:15:02;16.37;;;14.70;;
9924;SDS011;5001;51.674;7.868;2023-12-20T06:17:30;18.97;;;15.90;;
9924;SDS011;5001;51.674;7.868;2023-12-20T06:19:57;16.13;;;14.43;;
9924;SDS011;5001;51.674;7.868;2023-12-20T06:22:25;17.87;;;14.60;;
9924;SDS011;5001;51.674;7.868;2023-12-20T06:24:52;17.80;;;14.60;;
9924;SDS011;5001;51.674;7.868;2023-12-20T06:27:19;17.97;;;14.43;;
9924;SDS011;5001;51.674;7.868;2023-12-20T06:29:46;23.53;;;15.13;;
9924;SDS011;5001;51.674;7.868;2023-12-20T06:32:13;24.03;;;15.90;;
9924;SDS011;5001;51.674;7.868;2023-12-20T06:34:39;23.63;;;15.60;;
9924;SDS011;5001;51.674;7.868;2023-12-20T06:37:07;22.93;;;15.57;;
9924;SDS011;5001;51.674;7.868;2023-12-20T06:39:34;20.77;;;16.00;;
9924;SDS011;5001;51.674;7.868;2023-12-20T06:42:01;21.23;;;15.57;;
9924;SDS011;5001;51.674;7.868;2023-12-20T06:44:28;30.80;;;15.93;;
9924;SDS011;5001;51.674;7.868;2023-12-20T06:46:55;27.37;;;16.37;;
9924;SDS011;5001;51.674;7.868;2023-12-20T06:49:22;31.43;;;15.37;;
9924;SDS011;5001;51.674;7.868;2023-12-20T06:51:49;27.97;;;15.50;;
9924;SDS011;5001;51.674;7.868;2023-12-20T06:54:16;27.53;;;15.80;;
9924;SDS011;5001;51.674;7.868;2023-12-20T06:56:43;19.10;;;15.50;;
9924;SDS011;5001;51.674;7.868;2023-12-20T06:59:10;19.77;;;16.53;;
9924;SDS011;5001;51.674;7.868;2023-12-20T07:01:37;17.20;;;15.17;;
9924;SDS011;5001;51.674;7.868;2023-12-20T07:04:04;18.70;;;16.67;;
9924;SDS011;5001;51.674;7.868;2023-12-20T07:06:31;18.73;;;16.27;;
9924;SDS011;5001;51.674;7.868;2023-12-20T07:08:58;21.90;;;16.17;;
9924;SDS011;5001;51.674;7.868;2023-12-20T07:11:25;17.67;;;15.73;;
9924;SDS011;5001;51.674;7.868;2023-12-20T07:13:52;19.83;;;16.67;;
9924;SDS011;5001;51.674;7.868;2023-12-20T07:16:20;27.00;;;16.70;;
9924;SDS011;5001;51.674;7.868;2023-12-20T07:18:49;22.87;;;17.30;;
9924;SDS011;5001;51.674;7.868;2023-12-20T07:21:16;25.63;;;16.63;;
9924;SDS011;5001;51.674;7.868;2023-12-20T07:23:43;17.47;;;15.87;;
9924;SDS011;5001;51.674;7.868;2023-12-20T07:26:10;22.87;;;17.00;;
9924;SDS011;5001;51.674;7.868;2023-12-20T07:28:37;23.43;;;15.77;;
9924;SDS011;5001;51.674;7.868;2023-12-20T07:31:04;21.90;;;17.17;;
9924;SDS011;5001;51.674;7.868;2023-12-20T07:33:32;27.33;;;16.83;;
9924;SDS011;5001;51.674;7.868;2023-12-20T07:36:05;17.33;;;15.70;;
9924;SDS011;5001;51.674;7.868;2023-12-20T07:38:32;26.20;;;15.93;;
9924;SDS011;5001;51.674;7.868;2023-12-20T07:40:59;26.80;;;16.53;;
9924;SDS011;5001;51.674;7.868;2023-12-20T07:43:26;23.33;;;16.13;;
9924;SDS011;5001;51.674;7.868;2023-12-20T07:45:53;17.60;;;15.53;;
9924;SDS011;5001;51.674;7.868;2023-12-20T07:48:20;29.13;;;16.33;;
9924;SDS011;5001;51.674;7.868;2023-12-20T07:50:48;17.40;;;15.17;;
9924;SDS011;5001;51.674;7.868;2023-12-20T07:53:15;15.40;;;13.77;;
9924;SDS011;5001;51.674;7.868;2023-12-20T07:55:42;16.53;;;14.47;;
9924;SDS011;5001;51.674;7.868;2023-12-20T07:58:09;15.03;;;13.47;;
9924;SDS011;5001;51.674;7.868;2023-12-20T08:00:36;14.80;;;13.47;;
9924;SDS011;5001;51.674;7.868;2023-12-20T08:03:04;17.67;;;13.60;;
9924;SDS011;5001;51.674;7.868;2023-12-20T08:05:31;17.97;;;13.60;;
9924;SDS011;5001;51.674;7.868;2023-12-20T08:07:58;15.23;;;13.90;;
9924;SDS011;5001;51.674;7.868;2023-12-20T08:10:25;18.73;;;14.13;;
9924;SDS011;5001;51.674;7.868;2023-12-20T08:12:53;15.93;;;14.30;;
9924;SDS011;5001;51.674;7.868;2023-12-20T08:15:20;19.03;;;14.40;;
9924;SDS011;5001;51.674;7.868;2023-12-20T08:17:47;15.47;;;13.97;;
9924;SDS011;5001;51.674;7.868;2023-12-20T08:20:15;16.17;;;14.03;;
9924;SDS011;5001;51.674;7.868;2023-12-20T08:22:51;17.50;;;14.23;;
9924;SDS011;5001;51.674;7.868;2023-12-20T08:25:18;15.73;;;14.13;;
9924;SDS011;5001;51.674;7.868;2023-12-20T08:27:45;16.80;;;14.60;;
9924;SDS011;5001;51.674;7.868;2023-12-20T08:30:13;21.43;;;14.13;;
9924;SDS011;5001;51.674;7.868;2023-12-20T08:32:40;20.23;;;14.27;;
9924;SDS011;5001;51.674;7.868;2023-12-20T08:35:07;18.80;;;14.10;;
9924;SDS011;5001;51.674;7.868;2023-12-20T08:37:35;15.63;;;14.27;;
9924;SDS011;5001;51.674;7.868;2023-12-20T08:40:02;18.20;;;14.00;;
9924;SDS011;5001;51.674;7.868;2023-12-20T08:42:30;15.47;;;14.17;;
9924;SDS011;5001;51.674;7.868;2023-12-20T08:44:58;17.90;;;13.50;;
9924;SDS011;5001;51.674;7.868;2023-12-20T08:47:25;15.40;;;13.90;;
9924;SDS011;5001;51.674;7.868;2023-12-20T08:49:52;21.63;;;14.40;;
9924;SDS011;5001;51.674;7.868;2023-12-20T08:52:23;14.77;;;13.50;;
9924;SDS011;5001;51.674;7.868;2023-12-20T08:54:50;17.07;;;14.60;;
9924;SDS011;5001;51.674;7.868;2023-12-20T08:57:19;20.13;;;14.83;;
9924;SDS011;5001;51.674;7.868;2023-12-20T08:59:47;15.57;;;13.50;;
9924;SDS011;5001;51.674;7.868;2023-12-20T09:02:14;16.13;;;14.53;;
9924;SDS011;5001;51.674;7.868;2023-12-20T09:04:42;22.17;;;15.60;;
9924;SDS011;5001;51.674;7.868;2023-12-20T09:07:22;17.17;;;15.43;;
9924;SDS011;5001;51.674;7.868;2023-12-20T09:09:51;21.37;;;17.00;;
9924;SDS011;5001;51.674;7.868;2023-12-20T09:12:18;16.03;;;14.23;;
9924;SDS011;5001;51.674;7.868;2023-12-20T09:14:49;15.67;;;14.17;;
9924;SDS011;5001;51.674;7.868;2023-12-20T09:17:18;15.07;;;13.80;;
9924;SDS011;5001;51.674;7.868;2023-12-20T09:19:45;17.53;;;14.37;;
9924;SDS011;5001;51.674;7.868;2023-12-20T09:22:12;15.80;;;14.47;;
9924;SDS011;5001;51.674;7.868;2023-12-20T09:24:39;14.17;;;13.07;;
9924;SDS011;5001;51.674;7.868;2023-12-20T09:27:06;20.97;;;14.43;;
9924;SDS011;5001;51.674;7.868;2023-12-20T09:29:33;19.03;;;14.23;;
9924;SDS011;5001;51.674;7.868;2023-12-20T09:32:00;15.83;;;14.23;;
9924;SDS011;5001;51.674;7.868;2023-12-20T09:34:28;19.40;;;14.77;;
9924;SDS011;5001;51.674;7.868;2023-12-20T09:36:56;16.30;;;14.50;;
9924;SDS011;5001;51.674;7.868;2023-12-20T09:39:23;15.93;;;14.23;;
9924;SDS011;5001;51.674;7.868;2023-12-20T09:42:00;16.13;;;14.77;;
9924;SDS011;5001;51.674;7.868;2023-12-20T09:44:28;16.37;;;14.10;;
9924;SDS011;5001;51.674;7.868;2023-12-20T09:46:56;17.60;;;14.57;;
9924;SDS011;5001;51.674;7.868;2023-12-20T09:49:24;16.67;;;15.00;;
9924;SDS011;5001;51.674;7.868;2023-12-20T09:51:54;18.13;;;14.53;;
9924;SDS011;5001;51.674;7.868;2023-12-20T09:54:21;19.53;;;14.57;;
9924;SDS011;5001;51.674;7.868;2023-12-20T09:56:49;18.73;;;14.67;;
9924;SDS011;5001;51.674;7.868;2023-12-20T09:59:16;17.47;;;15.13;;
9924;SDS011;5001;51.674;7.868;2023-12-20T10:01:43;15.50;;;14.10;;
9924;SDS011;5001;51.674;7.868;2023-12-20T10:04:11;18.23;;;14.77;;
9924;SDS011;5001;51.674;7.868;2023-12-20T10:06:55;15.23;;;13.90;;
9924;SDS011;5001;51.674;7.868;2023-12-20T10:09:23;18.07;;;14.67;;
9924;SDS011;5001;51.674;7.868;2023-12-20T10:11:53;18.50;;;13.40;;
9924;SDS011;5001;51.674;7.868;2023-12-20T10:14:21;17.90;;;14.37;;
9924;SDS011;5001;51.674;7.868;2023-12-20T10:16:49;17.40;;;15.10;;
9924;SDS011;5001;51.674;7.868;2023-12-20T10:19:17;15.77;;;14.13;;
9924;SDS011;5001;51.674;7.868;2023-12-20T10:21:47;16.90;;;15.10;;
9924;SDS011;5001;51.674;7.868;2023-12-20T10:24:17;17.07;;;14.30;;
9924;SDS011;5001;51.674;7.868;2023-12-20T10:26:44;16.77;;;15.23;;
9924;SDS011;5001;51.674;7.868;2023-12-20T10:29:11;16.03;;;14.40;;
9924;SDS011;5001;51.674;7.868;2023-12-20T10:31:38;16.13;;;14.63;;
9924;SDS011;5001;51.674;7.868;2023-12-20T10:34:05;19.47;;;14.43;;
9924;SDS011;5001;51.674;7.868;2023-12-20T10:36:33;23.27;;;14.93;;
9924;SDS011;5001;51.674;7.868;2023-12-20T10:39:00;17.50;;;14.13;;
9924;SDS011;5001;51.674;7.868;2023-12-20T10:41:29;15.67;;;14.07;;
9924;SDS011;5001;51.674;7.868;2023-12-20T10:44:01;15.07;;;13.77;;
9924;SDS011;5001;51.674;7.868;2023-12-20T10:46:31;25.47;;;14.20;;
9924;SDS011;5001;51.674;7.868;2023-12-20T10:48:59;17.13;;;13.73;;
9924;SDS011;5001;51.674;7.868;2023-12-20T10:51:29;15.00;;;13.70;;
9924;SDS011;5001;51.674;7.868;2023-12-20T10:53:57;15.40;;;14.00;;
9924;SDS011;5001;51.674;7.868;2023-12-20T10:56:24;18.73;;;14.50;;
9924;SDS011;5001;51.674;7.868;2023-12-20T10:58:57;15.27;;;13.70;;
9924;SDS011;5001;51.674;7.868;2023-12-20T11:01:27;15.43;;;14.00;;
9924;SDS011;5001;51.674;7.868;2023-12-20T11:03:56;14.47;;;13.03;;
9924;SDS011;5001;51.674;7.868;2023-12-20T11:06:29;14.90;;;13.70;;
9924;SDS011;5001;51.674;7.868;2023-12-20T11:14:24;15.77;;;14.07;;
9924;SDS011;5001;51.674;7.868;2023-12-20T11:17:05;15.53;;;14.23;;
9924;SDS011;5001;51.674;7.868;2023-12-20T11:19:36;15.37;;;12.77;;
9924;SDS011;5001;51.674;7.868;2023-12-20T11:22:04;16.93;;;14.13;;
9924;SDS011;5001;51.674;7.868;2023-12-20T11:24:32;14.90;;;13.50;;
9924;SDS011;5001;51.674;7.868;2023-12-20T11:27:00;14.77;;;13.57;;
9924;SDS011;5001;51.674;7.868;2023-12-20T11:29:37;21.27;;;14.83;;
9924;SDS011;5001;51.674;7.868;2023-12-20T11:34:57;17.50;;;14.27;;
9924;SDS011;5001;51.674;7.868;2023-12-20T11:37:29;16.87;;;13.77;;
9924;SDS011;5001;51.674;7.868;2023-12-20T11:40:04;23.30;;;14.83;;
9924;SDS011;5001;51.674;7.868;2023-12-20T11:42:43;15.90;;;14.50;;
9924;SDS011;5001;51.674;7.868;2023-12-20T11:45:15;15.83;;;14.53;;
9924;SDS011;5001;51.674;7.868;2023-12-20T11:47:46;18.67;;;14.23;;
9924;SDS011;5001;51.674;7.868;2023-12-20T11:50:17;15.67;;;14.17;;
9924;SDS011;5001;51.674;7.868;2023-12-20T11:52:45;15.43;;;13.93;;
9924;SDS011;5001;51.674;7.868;2023-12-20T11:55:12;16.33;;;14.53;;
9924;SDS011;5001;51.674;7.868;2023-12-20T11:57:42;14.80;;;13.60;;
9924;SDS011;5001;51.674;7.868;2023-12-20T12:00:12;17.33;;;13.40;;
9924;SDS011;5001;51.674;7.868;2023-12-20T12:02:40;14.27;;;12.97;;
9924;SDS011;5001;51.674;7.868;2023-12-20T12:05:07;15.43;;;13.93;;
9924;SDS011;5001;51.674;7.868;2023-12-20T12:07:35;16.43;;;13.93;;
9924;SDS011;5001;51.674;7.868;2023-12-20T12:10:02;15.00;;;13.80;;
9924;SDS011;5001;51.674;7.868;2023-12-20T12:12:30;14.50;;;13.40;;
9924;SDS011;5001;51.674;7.868;2023-12-20T12:14:59;17.67;;;13.10;;
9924;SDS011;5001;51.674;7.868;2023-12-20T12:17:26;14.40;;;13.10;;
9924;SDS011;5001;51.674;7.868;2023-12-20T12:20:01;16.20;;;14.53;;
9924;SDS011;5001;51.674;7.868;2023-12-20T12:22:31;15.17;;;13.67;;
9924;SDS011;5001;51.674;7.868;2023-12-20T12:24:59;15.00;;;13.67;;
9924;SDS011;5001;51.674;7.868;2023-12-20T12:27:37;20.10;;;14.90;;
9924;SDS011;5001;51.674;7.868;2023-12-20T12:30:07;15.30;;;14.00;;
9924;SDS011;5001;51.674;7.868;2023-12-20T12:32:36;14.80;;;13.40;;
9924;SDS011;5001;51.674;7.868;2023-12-20T12:35:04;15.40;;;13.67;;
9924;SDS011;5001;51.674;7.868;2023-12-20T12:37:37;14.80;;;13.60;;
9924;SDS011;5001;51.674;7.868;2023-12-20T12:40:12;14.40;;;13.07;;
9924;SDS011;5001;51.674;7.868;2023-12-20T12:42:44;14.50;;;13.20;;
9924;SDS011;5001;51.674;7.868;2023-12-20T12:45:11;14.97;;;13.77;;
9924;SDS011;5001;51.674;7.868;2023-12-20T12:47:39;15.53;;;14.23;;
9924;SDS011;5001;51.674;7.868;2023-12-20T12:50:06;16.00;;;14.60;;
9924;SDS011;5001;51.674;7.868;2023-12-20T12:52:34;16.17;;;14.77;;
9924;SDS011;5001;51.674;7.868;2023-12-20T12:55:02;16.87;;;15.30;;
9924;SDS011;5001;51.674;7.868;2023-12-20T12:57:31;16.70;;;14.87;;
9924;SDS011;5001;51.674;7.868;2023-12-20T12:59:59;15.33;;;14.10;;
9924;SDS011;5001;51.674;7.868;2023-12-20T13:02:26;18.70;;;14.90;;
9924;SDS011;5001;51.674;7.868;2023-12-20T13:04:53;15.83;;;14.40;;
9924;SDS011;5001;51.674;7.868;2023-12-20T13:07:20;15.97;;;14.57;;
9924;SDS011;5001;51.674;7.868;2023-12-20T13:09:47;19.50;;;14.90;;
9924;SDS011;5001;51.674;7.868;2023-12-20T13:12:15;17.30;;;15.73;;
9924;SDS011;5001;51.674;7.868;2023-12-20T13:14:42;16.50;;;15.00;;
9924;SDS011;5001;51.674;7.868;2023-12-20T13:17:09;18.17;;;15.60;;
9924;SDS011;5001;51.674;7.868;2023-12-20T13:19:36;16.47;;;14.90;;
9924;SDS011;5001;51.674;7.868;2023-12-20T13:22:03;15.97;;;14.57;;
9924;SDS011;5001;51.674;7.868;2023-12-20T13:24:30;19.50;;;15.83;;
9924;SDS011;5001;51.674;7.868;2023-12-20T13:26:58;16.10;;;14.80;;
9924;SDS011;5001;51.674;7.868;2023-12-20T13:29:25;16.30;;;14.73;;
9924;SDS011;5001;51.674;7.868;2023-12-20T13:31:55;17.00;;;15.13;;
9924;SDS011;5001;51.674;7.868;2023-12-20T13:34:23;17.00;;;15.40;;
9924;SDS011;5001;51.674;7.868;2023-12-20T13:36:50;16.20;;;14.60;;
9924;SDS011;5001;51.674;7.868;2023-12-20T13:39:17;16.33;;;14.70;;
9924;SDS011;5001;51.674;7.868;2023-12-20T13:41:45;17.37;;;15.47;;
9924;SDS011;5001;51.674;7.868;2023-12-20T13:44:12;15.33;;;14.03;;
9924;SDS011;5001;51.674;7.868;2023-12-20T13:46:40;18.80;;;15.33;;
9924;SDS011;5001;51.674;7.868;2023-12-20T13:49:07;17.00;;;15.33;;
9924;SDS011;5001;51.674;7.868;2023-12-20T13:51:34;19.37;;;15.53;;
9924;SDS011;5001;51.674;7.868;2023-12-20T13:54:01;17.63;;;15.77;;
9924;SDS011;5001;51.674;7.868;2023-12-20T13:56:28;17.63;;;14.60;;
9924;SDS011;5001;51.674;7.868;2023-12-20T13:58:56;16.17;;;14.90;;
9924;SDS011;5001;51.674;7.868;2023-12-20T14:01:23;16.80;;;15.07;;
9924;SDS011;5001;51.674;7.868;2023-12-20T14:03:50;18.57;;;14.77;;
9924;SDS011;5001;51.674;7.868;2023-12-20T14:06:17;16.20;;;14.83;;
9924;SDS011;5001;51.674;7.868;2023-12-20T14:08:44;22.43;;;15.50;;
9924;SDS011;5001;51.674;7.868;2023-12-20T14:11:12;22.97;;;15.37;;
9924;SDS011;5001;51.674;7.868;2023-12-20T14:13:39;23.87;;;14.97;;
9924;SDS011;5001;51.674;7.868;2023-12-20T14:16:06;16.60;;;14.83;;
9924;SDS011;5001;51.674;7.868;2023-12-20T14:18:34;16.53;;;14.83;;
9924;SDS011;5001;51.674;7.868;2023-12-20T14:21:00;16.27;;;14.53;;
9924;SDS011;5001;51.674;7.868;2023-12-20T14:23:28;16.87;;;14.63;;
9924;SDS011;5001;51.674;7.868;2023-12-20T14:25:54;21.33;;;14.87;;
9924;SDS011;5001;51.674;7.868;2023-12-20T14:28:25;15.93;;;14.80;;
9924;SDS011;5001;51.674;7.868;2023-12-20T14:30:52;15.83;;;14.53;;
9924;SDS011;5001;51.674;7.868;2023-12-20T14:33:19;16.47;;;14.73;;
9924;SDS011;5001;51.674;7.868;2023-12-20T14:35:48;18.03;;;14.67;;
9924;SDS011;5001;51.674;7.868;2023-12-20T14:38:15;16.80;;;14.80;;
9924;SDS011;5001;51.674;7.868;2023-12-20T14:40:42;16.37;;;14.83;;
9924;SDS011;5001;51.674;7.868;2023-12-20T14:43:09;16.17;;;14.60;;
9924;SDS011;5001;51.674;7.868;2023-12-20T14:45:36;15.93;;;14.57;;
9924;SDS011;5001;51.674;7.868;2023-12-20T14:48:03;15.30;;;14.07;;
9924;SDS011;5001;51.674;7.868;2023-12-20T14:50:31;16.20;;;14.90;;
9924;SDS011;5001;51.674;7.868;2023-12-20T14:52:58;16.10;;;14.80;;
9924;SDS011;5001;51.674;7.868;2023-12-20T14:55:26;15.60;;;14.10;;
9924;SDS011;5001;51.674;7.868;2023-12-20T14:57:56;15.87;;;14.30;;
9924;SDS011;5001;51.674;7.868;2023-12-20T15:00:23;15.83;;;13.77;;
9924;SDS011;5001;51.674;7.868;2023-12-20T15:02:50;15.10;;;13.70;;
9924;SDS011;5001;51.674;7.868;2023-12-20T15:05:17;14.97;;;13.70;;